14721 registros encontrados.
Tendencias del filtro actual

Gráficas del histórico

Cargando datos para la gráfica…
Temperatura y humedad
Batería y lluvia
ID Dispositivo Fecha Hora sysDT Temperatura 1 Temperatura 2 Humedad Batería Nivel de lluvia
14321 ciricote19 2026-05-09 08:32:57 2026-05-09 14:32:57 32.0 30.9 69.5 3.97 0.0
14320 ciricote11 2026-05-09 08:31:06 2026-05-09 14:31:06 30.4 31.1 71.0 4.08 0.0
14319 ciricote1 2026-05-09 08:30:53 2026-05-09 14:30:53 31.0 31.2 74.5 4.15 3.0
14318 ciricote12 2026-05-09 08:30:41 2026-05-09 14:30:41 31.4 30.9 69.5 4.12 50.0
14317 ciricote19 2026-05-09 08:18:04 2026-05-09 14:18:04 31.3 30.4 71.5 3.96 0.0
14316 ciricote11 2026-05-09 08:16:04 2026-05-09 14:16:04 29.8 30.4 74.5 4.08 0.0
14315 ciricote12 2026-05-09 08:15:55 2026-05-09 14:15:55 31.1 30.3 72.5 4.12 50.0
14314 ciricote1 2026-05-09 08:15:44 2026-05-09 14:15:44 30.3 30.6 77.0 4.15 3.0
14313 ciricote19 2026-05-09 08:03:04 2026-05-09 14:03:04 29.1 29.0 78.5 3.94 0.0
14312 ciricote1 2026-05-09 08:00:58 2026-05-09 14:00:58 29.5 29.5 83.0 4.14 3.0
14311 ciricote12 2026-05-09 08:00:55 2026-05-09 14:00:55 29.9 29.1 78.0 4.12 50.0
14310 ciricote11 2026-05-09 08:00:48 2026-05-09 14:00:48 29.2 29.0 81.5 4.06 0.0
14309 ciricote19 2026-05-09 07:47:41 2026-05-09 13:47:41 28.3 28.3 81.5 3.94 0.0
14308 ciricote1 2026-05-09 07:46:05 2026-05-09 13:46:05 28.6 28.6 87.0 4.14 3.0
14307 ciricote12 2026-05-09 07:45:55 2026-05-09 13:45:55 29.0 0.0 0.0 4.12 50.0
14306 ciricote11 2026-05-09 07:45:55 2026-05-09 13:45:55 28.4 28.3 85.0 4.06 0.0
14305 ciricote19 2026-05-09 07:32:57 2026-05-09 13:32:57 27.5 27.5 86.0 3.94 0.0
14304 ciricote12 2026-05-09 07:31:02 2026-05-09 13:31:02 28.2 27.6 85.5 4.12 50.0
14303 ciricote1 2026-05-09 07:30:56 2026-05-09 13:30:56 27.6 27.9 91.5 4.14 3.0
14302 ciricote11 2026-05-09 07:30:55 2026-05-09 13:30:55 27.7 27.7 88.5 4.06 0.0
14301 ciricote19 2026-05-09 07:18:02 2026-05-09 13:18:02 27.6 27.5 87.5 3.94 0.0
14300 ciricote1 2026-05-09 07:16:10 2026-05-09 13:16:10 27.8 27.9 93.5 4.14 3.0
14299 ciricote12 2026-05-09 07:16:02 2026-05-09 13:16:02 27.8 27.5 88.0 4.12 50.0
14298 ciricote11 2026-05-09 07:16:02 2026-05-09 13:16:02 27.8 27.6 90.5 4.06 0.0
14297 ciricote19 2026-05-09 07:02:48 2026-05-09 13:02:48 26.6 26.7 91.5 3.94 0.0
14296 ciricote11 2026-05-09 07:01:02 2026-05-09 13:01:02 27.1 26.9 94.0 4.06 0.0
14295 ciricote1 2026-05-09 07:00:47 2026-05-09 13:00:47 26.9 27.0 98.0 4.12 3.0
14294 ciricote12 2026-05-09 07:00:39 2026-05-09 13:00:39 27.1 26.6 91.0 4.12 50.0
14293 ciricote19 2026-05-09 06:47:46 2026-05-09 12:47:46 26.3 26.4 93.5 3.92 0.0
14292 ciricote11 2026-05-09 06:46:09 2026-05-09 12:46:09 26.5 26.5 95.5 4.06 0.0
14291 ciricote1 2026-05-09 06:46:01 2026-05-09 12:46:01 26.4 26.7 99.0 4.12 3.0
14290 ciricote12 2026-05-09 06:45:46 2026-05-09 12:45:46 26.6 26.2 92.5 4.12 50.0
14289 ciricote19 2026-05-09 06:32:39 2026-05-09 12:32:39 26.0 26.0 96.0 3.94 0.0
14288 ciricote11 2026-05-09 06:31:09 2026-05-09 12:31:09 26.1 26.0 98.0 4.06 0.0
14287 ciricote1 2026-05-09 06:31:01 2026-05-09 12:31:01 25.9 26.1 99.5 4.12 3.0
14286 ciricote12 2026-05-09 06:30:46 2026-05-09 12:30:46 26.1 25.8 95.0 4.12 50.0
14285 ciricote19 2026-05-09 06:17:41 2026-05-09 12:17:41 25.6 25.7 96.5 3.94 0.0
14284 ciricote11 2026-05-09 06:16:09 2026-05-09 12:16:09 25.9 25.8 99.0 4.06 0.0
14283 ciricote1 2026-05-09 06:16:01 2026-05-09 12:16:01 25.6 25.9 99.5 4.12 3.0
14282 ciricote12 2026-05-09 06:15:46 2026-05-09 12:15:46 25.8 25.6 96.0 4.12 50.0
14281 ciricote19 2026-05-09 06:02:53 2026-05-09 12:02:53 25.5 25.7 96.5 3.94 0.0
14280 ciricote11 2026-05-09 06:01:09 2026-05-09 12:01:09 25.8 25.7 98.5 4.06 0.0
14279 ciricote1 2026-05-09 06:01:08 2026-05-09 12:01:08 25.5 25.8 99.5 4.12 3.0
14278 ciricote12 2026-05-09 06:00:46 2026-05-09 12:00:46 25.7 25.5 95.5 4.12 50.0
14277 ciricote19 2026-05-09 05:47:53 2026-05-09 11:47:53 25.6 25.6 96.5 3.94 0.0
14276 ciricote1 2026-05-09 05:46:08 2026-05-09 11:46:08 25.5 25.8 99.5 4.12 3.0
14275 ciricote12 2026-05-09 05:45:53 2026-05-09 11:45:53 25.6 25.4 96.0 4.12 50.0
14274 ciricote11 2026-05-09 05:45:46 2026-05-09 11:45:46 25.8 25.6 99.0 4.06 0.0
14273 ciricote19 2026-05-09 05:32:53 2026-05-09 11:32:53 25.5 25.5 96.5 3.94 0.0
14272 ciricote1 2026-05-09 05:31:08 2026-05-09 11:31:08 25.4 25.6 99.5 4.12 3.0
14271 ciricote11 2026-05-09 05:30:46 2026-05-09 11:30:46 25.6 25.5 99.0 4.06 0.0
14270 ciricote12 2026-05-09 05:30:46 2026-05-09 11:30:46 25.5 25.3 96.0 4.12 50.0
14269 ciricote19 2026-05-09 05:17:39 2026-05-09 11:17:39 25.5 25.5 96.0 3.94 0.0
14268 ciricote1 2026-05-09 05:16:08 2026-05-09 11:16:08 25.4 25.6 99.5 4.12 3.0
14267 ciricote11 2026-05-09 05:15:46 2026-05-09 11:15:46 25.6 25.6 98.5 4.06 0.0
14266 ciricote12 2026-05-09 05:15:39 2026-05-09 11:15:39 25.5 25.3 95.5 4.12 50.0
14265 ciricote19 2026-05-09 05:02:53 2026-05-09 11:02:53 25.4 25.5 96.0 3.94 0.0
14264 ciricote1 2026-05-09 05:01:08 2026-05-09 11:01:08 25.3 25.6 99.5 4.12 3.0
14263 ciricote12 2026-05-09 05:00:53 2026-05-09 11:00:53 25.5 25.2 95.5 4.12 50.0
14262 ciricote11 2026-05-09 05:00:46 2026-05-09 11:00:46 25.6 25.5 98.5 4.06 0.0
14261 ciricote19 2026-05-09 04:47:53 2026-05-09 10:47:53 25.4 25.5 95.0 3.94 0.0
14260 ciricote1 2026-05-09 04:46:08 2026-05-09 10:46:08 25.3 25.7 99.5 4.12 3.0
14259 ciricote12 2026-05-09 04:45:53 2026-05-09 10:45:53 25.5 25.3 94.5 4.12 50.0
14258 ciricote11 2026-05-09 04:45:46 2026-05-09 10:45:46 25.6 25.6 97.5 4.06 0.0
14257 ciricote19 2026-05-09 04:32:53 2026-05-09 10:32:53 25.3 25.5 94.5 3.94 0.0
14256 ciricote1 2026-05-09 04:31:08 2026-05-09 10:31:08 25.4 25.6 99.5 4.12 3.0
14255 ciricote12 2026-05-09 04:30:46 2026-05-09 10:30:46 25.5 25.3 94.0 4.12 50.0
14254 ciricote11 2026-05-09 04:30:46 2026-05-09 10:30:46 25.6 25.5 97.5 4.06 0.0
14253 ciricote19 2026-05-09 04:18:04 2026-05-09 10:18:04 25.4 25.5 94.0 3.94 0.0
14252 ciricote1 2026-05-09 04:16:08 2026-05-09 10:16:08 25.3 25.6 99.5 4.12 3.0
14251 ciricote12 2026-05-09 04:16:00 2026-05-09 10:16:00 25.5 25.3 93.5 4.12 50.0
14250 ciricote11 2026-05-09 04:15:53 2026-05-09 10:15:53 25.6 25.5 97.0 4.06 0.0
14249 ciricote19 2026-05-09 04:02:46 2026-05-09 10:02:46 25.5 25.5 92.5 3.94 0.0
14248 ciricote1 2026-05-09 04:01:08 2026-05-09 10:01:08 25.5 25.8 99.0 4.12 3.0
14247 ciricote11 2026-05-09 04:00:46 2026-05-09 10:00:46 25.7 25.7 95.5 4.06 0.0
14246 ciricote12 2026-05-09 04:00:39 2026-05-09 10:00:39 25.6 25.4 92.0 4.12 50.0
14245 ciricote19 2026-05-09 03:47:46 2026-05-09 09:47:46 25.5 25.6 91.5 3.94 0.0
14244 ciricote1 2026-05-09 03:46:01 2026-05-09 09:46:01 25.5 25.9 98.0 4.12 3.0
14243 ciricote12 2026-05-09 03:45:46 2026-05-09 09:45:46 25.6 25.5 91.5 4.12 50.0
14242 ciricote11 2026-05-09 03:45:46 2026-05-09 09:45:46 25.8 25.7 94.5 4.06 0.0
14145 ciricote19 2026-05-09 03:32:50 2026-05-09 03:32:50 29.9 30.0 62.5 3.94 0.0
14241 ciricote19 2026-05-09 03:32:39 2026-05-09 09:32:39 25.6 25.7 90.0 3.94 0.0
14240 ciricote1 2026-05-09 03:31:01 2026-05-09 09:31:01 25.6 26.0 97.5 4.12 3.0
14239 ciricote12 2026-05-09 03:30:46 2026-05-09 09:30:46 25.8 25.7 90.0 4.12 50.0
14238 ciricote11 2026-05-09 03:30:46 2026-05-09 09:30:46 26.0 25.9 93.0 4.06 0.0
14237 ciricote19 2026-05-09 03:18:04 2026-05-09 09:18:04 25.8 25.9 88.5 3.94 0.0
14236 ciricote1 2026-05-09 03:16:01 2026-05-09 09:16:01 25.8 26.1 96.0 4.12 3.0
14235 ciricote12 2026-05-09 03:15:46 2026-05-09 09:15:46 26.0 26.0 89.0 4.12 50.0
14234 ciricote11 2026-05-09 03:15:46 2026-05-09 09:15:46 26.1 26.0 92.5 4.06 0.0
14233 ciricote19 2026-05-09 03:02:39 2026-05-09 09:02:39 26.0 26.0 88.0 3.94 0.0
14232 ciricote1 2026-05-09 03:01:01 2026-05-09 09:01:01 25.9 26.2 95.0 4.12 3.0
14231 ciricote12 2026-05-09 03:00:46 2026-05-09 09:00:46 26.0 25.9 88.0 4.12 50.0
14230 ciricote11 2026-05-09 03:00:46 2026-05-09 09:00:46 26.2 26.1 91.5 4.06 0.0
14229 ciricote19 2026-05-09 02:47:57 2026-05-09 08:47:57 26.0 26.1 87.0 3.94 0.0
14228 ciricote1 2026-05-09 02:46:01 2026-05-09 08:46:01 26.0 26.2 94.0 4.12 2.0
14227 ciricote12 2026-05-09 02:45:46 2026-05-09 08:45:46 26.1 26.1 87.5 4.12 50.0
14226 ciricote11 2026-05-09 02:45:46 2026-05-09 08:45:46 26.2 26.1 91.0 4.06 0.0
14225 ciricote19 2026-05-09 02:32:57 2026-05-09 08:32:57 26.0 26.1 86.5 3.94 0.0
14224 ciricote1 2026-05-09 02:31:01 2026-05-09 08:31:01 26.0 26.2 93.5 4.12 3.0
14223 ciricote12 2026-05-09 02:30:46 2026-05-09 08:30:46 26.1 26.1 87.5 4.12 50.0
14222 ciricote11 2026-05-09 02:30:46 2026-05-09 08:30:46 26.3 26.1 90.5 4.06 0.0
14221 ciricote19 2026-05-09 02:18:04 2026-05-09 08:18:04 26.1 26.2 85.5 3.94 0.0
14220 ciricote11 2026-05-09 02:16:09 2026-05-09 08:16:09 26.4 26.3 89.0 4.06 0.0
14219 ciricote1 2026-05-09 02:15:54 2026-05-09 08:15:54 26.1 26.3 92.5 4.14 2.0
14218 ciricote12 2026-05-09 02:15:46 2026-05-09 08:15:46 26.2 26.1 86.0 4.12 50.0
14217 ciricote19 2026-05-09 02:03:02 2026-05-09 08:03:02 26.2 26.3 84.5 3.94 0.0
14216 ciricote11 2026-05-09 02:01:09 2026-05-09 08:01:09 26.5 26.4 88.0 4.06 0.0
14215 ciricote1 2026-05-09 02:00:54 2026-05-09 08:00:54 26.2 26.5 91.0 4.14 2.0
14214 ciricote12 2026-05-09 02:00:39 2026-05-09 08:00:39 26.4 26.4 85.0 4.12 50.0
14213 ciricote19 2026-05-09 01:47:48 2026-05-09 07:47:48 26.4 26.5 83.0 3.94 0.0
14212 ciricote11 2026-05-09 01:46:09 2026-05-09 07:46:09 26.6 26.6 87.0 4.06 0.0
14211 ciricote1 2026-05-09 01:45:54 2026-05-09 07:45:54 26.5 26.6 90.0 4.14 2.0
14210 ciricote12 2026-05-09 01:45:39 2026-05-09 07:45:39 26.5 26.5 84.0 4.12 50.0
14209 ciricote19 2026-05-09 01:32:55 2026-05-09 07:32:55 26.5 26.6 82.0 3.94 0.0
14208 ciricote11 2026-05-09 01:31:09 2026-05-09 07:31:09 26.8 26.7 86.0 4.06 0.0
14207 ciricote1 2026-05-09 01:30:47 2026-05-09 07:30:47 26.5 26.8 89.0 4.14 2.0
14206 ciricote12 2026-05-09 01:30:39 2026-05-09 07:30:39 26.6 26.7 82.5 4.12 50.0
14205 ciricote19 2026-05-09 01:17:50 2026-05-09 07:17:50 26.6 26.8 80.0 3.94 0.0
14204 ciricote11 2026-05-09 01:16:02 2026-05-09 07:16:02 26.9 26.8 84.0 4.06 0.0
14203 ciricote1 2026-05-09 01:15:47 2026-05-09 07:15:47 26.7 27.0 87.5 4.14 2.0
14202 ciricote12 2026-05-09 01:15:39 2026-05-09 07:15:39 26.8 26.8 80.5 4.12 50.0
14201 ciricote19 2026-05-09 01:02:48 2026-05-09 07:02:48 26.8 26.9 78.5 3.94 0.0
14200 ciricote1 2026-05-09 01:01:10 2026-05-09 07:01:10 26.8 27.2 85.5 4.14 2.0
14199 ciricote12 2026-05-09 01:01:02 2026-05-09 07:01:02 27.0 27.0 79.5 4.12 50.0
14198 ciricote11 2026-05-09 01:00:55 2026-05-09 07:00:55 27.1 27.0 82.5 4.06 0.0
14197 ciricote19 2026-05-09 00:47:48 2026-05-09 06:47:48 27.0 27.1 77.5 3.94 0.0
14196 ciricote1 2026-05-09 00:46:03 2026-05-09 06:46:03 27.0 27.3 83.5 4.14 2.0
14195 ciricote12 2026-05-09 00:46:02 2026-05-09 06:46:02 27.1 27.1 77.5 4.12 50.0
14194 ciricote11 2026-05-09 00:45:55 2026-05-09 06:45:55 27.3 27.2 80.5 4.06 0.0
14193 ciricote19 2026-05-09 00:32:41 2026-05-09 06:32:41 27.2 27.3 76.0 3.94 0.0
14192 ciricote1 2026-05-09 00:31:03 2026-05-09 06:31:03 27.3 27.6 81.5 4.14 2.0
14191 ciricote12 2026-05-09 00:31:02 2026-05-09 06:31:02 27.4 27.4 75.5 4.12 50.0
14190 ciricote11 2026-05-09 00:30:48 2026-05-09 06:30:48 27.5 27.5 78.5 4.06 0.0
14189 ciricote19 2026-05-09 00:17:41 2026-05-09 06:17:41 27.5 27.6 74.0 3.94 0.0
14188 ciricote12 2026-05-09 00:16:02 2026-05-09 06:16:02 27.6 27.5 73.5 4.12 50.0
14187 ciricote1 2026-05-09 00:15:56 2026-05-09 06:15:56 27.5 27.8 79.0 4.14 2.0
14186 ciricote11 2026-05-09 00:15:48 2026-05-09 06:15:48 27.8 27.7 76.5 4.06 0.0
14185 ciricote19 2026-05-09 00:02:41 2026-05-09 06:02:41 27.7 27.8 72.5 3.94 0.0
14184 ciricote11 2026-05-09 00:01:11 2026-05-09 06:01:11 27.9 27.8 75.0 4.06 0.0
14183 ciricote1 2026-05-09 00:00:56 2026-05-09 06:00:56 27.6 27.9 77.5 4.14 2.0
14182 ciricote12 2026-05-09 00:00:55 2026-05-09 06:00:55 27.8 27.6 72.0 4.12 50.0
14181 ciricote19 2026-05-08 23:47:57 2026-05-09 05:47:57 27.8 27.9 71.5 3.94 1.0
14180 ciricote11 2026-05-08 23:46:11 2026-05-09 05:46:11 28.0 28.0 74.0 4.06 0.0
14179 ciricote12 2026-05-08 23:45:55 2026-05-09 05:45:55 28.0 27.7 70.5 4.12 50.0
14178 ciricote1 2026-05-08 23:45:49 2026-05-09 05:45:49 27.8 28.2 76.5 4.14 2.0
14177 ciricote19 2026-05-08 23:33:04 2026-05-09 05:33:04 28.0 28.1 71.5 3.94 0.0
14176 ciricote11 2026-05-08 23:31:04 2026-05-09 05:31:04 28.2 28.1 73.0 4.06 0.0
14175 ciricote12 2026-05-08 23:30:55 2026-05-09 05:30:55 28.1 27.9 70.0 4.12 50.0
14174 ciricote1 2026-05-08 23:30:42 2026-05-09 05:30:42 28.0 28.3 75.5 4.14 2.0
14173 ciricote19 2026-05-08 23:18:04 2026-05-09 05:18:04 28.2 28.3 70.5 3.94 0.0
14172 ciricote11 2026-05-08 23:16:04 2026-05-09 05:16:04 28.4 28.4 72.0 4.06 0.0
14171 ciricote12 2026-05-08 23:15:55 2026-05-09 05:15:55 28.3 28.2 69.5 4.12 50.0
14170 ciricote1 2026-05-08 23:15:42 2026-05-09 05:15:42 28.1 28.5 74.5 4.14 2.0
14169 ciricote19 2026-05-08 23:02:43 2026-05-09 05:02:43 28.5 28.6 68.5 3.94 0.0
14168 ciricote1 2026-05-08 23:01:05 2026-05-09 05:01:05 28.5 28.8 72.5 4.14 2.0
14167 ciricote11 2026-05-08 23:00:57 2026-05-09 05:00:57 28.8 28.6 70.0 4.06 0.0
14166 ciricote12 2026-05-08 23:00:48 2026-05-09 05:00:48 28.6 28.4 68.0 4.12 50.0
14165 ciricote19 2026-05-08 22:47:57 2026-05-09 04:47:57 28.6 28.8 68.0 3.94 0.0
14164 ciricote1 2026-05-08 22:45:58 2026-05-09 04:45:58 28.6 28.8 71.5 4.14 2.0
14163 ciricote11 2026-05-08 22:45:50 2026-05-09 04:45:50 28.9 28.8 69.0 4.08 0.0
14162 ciricote12 2026-05-08 22:45:48 2026-05-09 04:45:48 28.8 28.7 67.0 4.12 50.0
14161 ciricote19 2026-05-08 22:33:04 2026-05-09 04:33:04 28.8 29.0 67.0 3.94 0.0
14160 ciricote1 2026-05-08 22:30:51 2026-05-09 04:30:51 28.8 29.1 70.0 4.14 2.0
14159 ciricote11 2026-05-08 22:30:50 2026-05-09 04:30:50 29.1 29.1 67.5 4.08 0.0
14158 ciricote12 2026-05-08 22:30:48 2026-05-09 04:30:48 29.0 29.0 65.5 4.12 50.0
14157 ciricote19 2026-05-08 22:17:57 2026-05-09 04:17:57 29.2 29.3 65.0 3.94 0.0
14156 ciricote1 2026-05-08 22:15:51 2026-05-09 04:15:51 29.2 29.5 68.0 4.14 2.0
14155 ciricote12 2026-05-08 22:15:48 2026-05-09 04:15:48 29.3 29.4 64.0 4.12 50.0
14154 ciricote11 2026-05-08 22:15:43 2026-05-09 04:15:43 29.5 29.4 65.5 4.08 0.0
14153 ciricote19 2026-05-08 22:02:57 2026-05-09 04:02:57 29.5 29.6 64.0 3.94 0.0
14152 ciricote11 2026-05-08 22:01:06 2026-05-09 04:01:06 29.8 29.7 64.0 4.08 0.0
14151 ciricote12 2026-05-08 22:00:48 2026-05-09 04:00:48 29.6 29.6 62.5 4.12 50.0
14150 ciricote1 2026-05-08 22:00:44 2026-05-09 04:00:44 29.5 29.7 66.0 4.14 2.0
14149 ciricote19 2026-05-08 21:47:57 2026-05-09 03:47:57 29.8 29.9 62.5 3.94 1.0
14148 ciricote1 2026-05-08 21:46:07 2026-05-09 03:46:07 29.8 30.0 65.0 4.14 2.0
14147 ciricote11 2026-05-08 21:46:06 2026-05-09 03:46:06 30.0 30.0 63.0 4.08 0.0
14146 ciricote12 2026-05-08 21:45:48 2026-05-09 03:45:48 29.9 29.8 61.5 4.12 50.0
14144 ciricote11 2026-05-08 21:30:59 2026-05-09 03:30:59 30.2 30.2 62.0 4.08 0.0
14143 ciricote1 2026-05-08 21:30:53 2026-05-09 03:30:53 30.0 30.3 64.0 4.14 2.0
14142 ciricote12 2026-05-08 21:30:48 2026-05-09 03:30:48 30.1 30.0 61.0 4.12 50.0
14141 ciricote19 2026-05-08 21:18:06 2026-05-09 03:18:06 30.4 30.6 60.5 3.94 1.0
14140 ciricote1 2026-05-08 21:15:53 2026-05-09 03:15:53 30.4 30.7 61.5 4.15 2.0
14139 ciricote11 2026-05-08 21:15:52 2026-05-09 03:15:52 30.6 30.6 59.5 4.08 0.0
14138 ciricote12 2026-05-08 21:15:41 2026-05-09 03:15:41 30.5 30.2 58.5 4.12 50.0
14137 ciricote19 2026-05-08 21:03:06 2026-05-09 03:03:06 30.8 30.9 58.0 3.94 1.0
14136 ciricote1 2026-05-08 21:00:46 2026-05-09 03:00:46 30.8 31.2 59.5 4.14 2.0
14135 ciricote11 2026-05-08 21:00:45 2026-05-09 03:00:45 31.0 31.0 57.5 4.08 0.0
14134 ciricote12 2026-05-08 21:00:41 2026-05-09 03:00:41 31.0 31.0 56.5 4.12 50.0
14133 ciricote19 2026-05-08 20:48:06 2026-05-09 02:48:06 31.3 31.4 55.0 3.94 1.0
14132 ciricote1 2026-05-08 20:46:02 2026-05-09 02:46:02 31.3 31.7 56.0 4.14 2.0
14131 ciricote11 2026-05-08 20:45:52 2026-05-09 02:45:52 31.6 31.5 54.5 4.08 0.0
14130 ciricote12 2026-05-08 20:45:41 2026-05-09 02:45:41 31.5 31.3 53.5 4.12 50.0
14129 ciricote19 2026-05-08 20:32:43 2026-05-09 02:32:43 31.7 31.8 53.0 3.94 1.0
14128 ciricote1 2026-05-08 20:30:55 2026-05-09 02:30:55 31.6 32.0 55.0 4.15 2.0
14127 ciricote11 2026-05-08 20:30:45 2026-05-09 02:30:45 31.9 31.8 52.5 4.08 0.0
14126 ciricote12 2026-05-08 20:30:41 2026-05-09 02:30:41 31.8 31.8 51.5 4.12 50.0
14125 ciricote19 2026-05-08 20:17:43 2026-05-09 02:17:43 32.1 32.2 51.0 3.94 1.0
14124 ciricote12 2026-05-08 20:16:04 2026-05-09 02:16:04 32.3 32.2 49.5 4.12 50.0
14123 ciricote11 2026-05-08 20:15:45 2026-05-09 02:15:45 32.4 32.3 50.5 4.08 0.0
14122 ciricote1 2026-05-08 20:15:41 2026-05-09 02:15:41 32.1 32.5 52.0 4.14 2.0
Página 3 de 74